createdAt,value
2023-05-19T00:00:10.539Z,101999.25
2023-05-19T00:02:12.103Z,102000.94
2023-05-19T00:04:14.642Z,102007.28
2023-05-19T00:06:16.303Z,102001.78
2023-05-19T00:08:18.871Z,102008.13
2023-05-19T00:10:20.706Z,102002.84
2023-05-19T00:12:22.289Z,102009.16
2023-05-19T00:14:23.908Z,102009.16
2023-05-19T00:16:26.470Z,102009.34
2023-05-19T00:18:29.728Z,102002.84
2023-05-19T00:20:31.559Z,102009.16
2023-05-19T00:22:33.209Z,102014.47
2023-05-19T00:24:34.679Z,102014.47
2023-05-19T00:26:36.231Z,102005.38
2023-05-19T00:28:37.858Z,102005.19
2023-05-19T00:30:39.365Z,102016.16
2023-05-19T00:32:40.922Z,102002.44
2023-05-19T00:34:42.726Z,101996.09
2023-05-19T00:36:44.313Z,102004.34
2023-05-19T00:38:45.929Z,102005.19
2023-05-19T00:40:47.571Z,102002.63
2023-05-19T00:42:49.151Z,101999.69
2023-05-19T00:44:50.839Z,101998.84
2023-05-19T00:46:52.461Z,101996.09
2023-05-19T00:48:54.028Z,101999.69
2023-05-19T00:51:01.922Z,101995.03
2023-05-19T00:53:03.398Z,101996.75
2023-05-19T00:55:05.539Z,101984.72
2023-05-19T00:57:07.324Z,101985.78
2023-05-19T00:59:08.827Z,101994.00
2023-05-19T01:01:12.063Z,101992.09
2023-05-19T01:03:15.298Z,101997.59
2023-05-19T01:05:17.195Z,101993.38
2023-05-19T01:07:19.951Z,101986.81
2023-05-19T01:09:22.567Z,101971.50
2023-05-19T01:11:24.103Z,101989.56
2023-05-19T01:13:26.329Z,101985.97
2023-05-19T01:15:28.653Z,101984.94
2023-05-19T01:17:34.399Z,101980.28
2023-05-19T01:19:51.030Z,101991.25
2023-05-19T01:22:13.045Z,101984.72
2023-05-19T01:24:14.865Z,101983.03
2023-05-19T01:26:28.717Z,101974.78
2023-05-19T01:28:33.181Z,101979.44
2023-05-19T01:30:41.629Z,101981.31
2023-05-19T01:32:44.614Z,101980.47
2023-05-19T01:34:47.114Z,101969.69
2023-05-19T01:36:49.924Z,101973.06
2023-05-19T01:38:52.353Z,101973.06
2023-05-19T01:40:54.464Z,101965.91
2023-05-19T01:42:57.875Z,101965.72
2023-05-19T01:45:00.107Z,101974.78
2023-05-19T01:47:02.463Z,101973.94
2023-05-19T01:49:04.448Z,101962.97
2023-05-19T01:51:05.891Z,101964.84
2023-05-19T01:53:07.506Z,101965.91
2023-05-19T01:55:09.437Z,101967.78
2023-05-19T01:57:11.502Z,101965.91
2023-05-19T01:59:22.522Z,101969.69
2023-05-19T02:01:44.530Z,101969.69
2023-05-19T02:04:01.316Z,101969.69
2023-05-19T02:06:08.639Z,101976.00
2023-05-19T02:08:17.588Z,101971.41
2023-05-19T02:10:24.179Z,101971.41
2023-05-19T02:12:32.900Z,101977.72
2023-05-19T02:14:40.303Z,101974.97
2023-05-19T02:16:44.267Z,101970.53
2023-05-19T02:18:46.340Z,101968.66
2023-05-19T02:20:48.570Z,101970.53
2023-05-19T02:22:50.443Z,101967.78
2023-05-19T02:24:52.153Z,101963.34
2023-05-19T02:26:53.931Z,101960.63
2023-05-19T02:28:55.821Z,101970.53
2023-05-19T02:30:57.321Z,101968.66
2023-05-19T02:32:58.822Z,101963.16
2023-05-19T02:35:00.462Z,101962.09
2023-05-19T02:37:02.053Z,101966.75
2023-05-19T02:39:03.946Z,101972.03
2023-05-19T02:41:05.635Z,101944.06
2023-05-19T02:43:08.034Z,101950.63
2023-05-19T02:45:09.759Z,101964.84
2023-05-19T02:47:11.275Z,101961.25
2023-05-19T02:49:12.831Z,101963.16
2023-05-19T02:51:14.301Z,101953.22
2023-05-19T02:53:15.917Z,101954.94
2023-05-19T02:55:17.710Z,101955.97
2023-05-19T02:57:19.321Z,101953.22
2023-05-19T02:59:20.763Z,101953.03
2023-05-19T03:01:23.238Z,101946.69
2023-05-19T03:03:24.999Z,101960.22
2023-05-19T03:05:26.665Z,101952.81
2023-05-19T03:07:28.152Z,101948.38
2023-05-19T03:09:29.583Z,101950.28
2023-05-19T03:11:31.262Z,101951.09
2023-05-19T03:13:33.024Z,101933.75
2023-05-19T03:15:35.193Z,101950.47
2023-05-19T03:17:37.065Z,101951.31
2023-05-19T03:19:38.727Z,101950.47
2023-05-19T03:21:40.594Z,101955.13
2023-05-19T03:23:42.163Z,101957.66
2023-05-19T03:25:43.749Z,101954.94
2023-05-19T03:27:45.375Z,101961.25
2023-05-19T03:29:46.826Z,101957.66
2023-05-19T03:31:48.312Z,101964.84
2023-05-19T03:33:49.848Z,101953.03
2023-05-19T03:35:53.074Z,101951.31
2023-05-19T03:37:54.661Z,101957.00
2023-05-19T03:39:56.202Z,101957.00
2023-05-19T03:41:57.770Z,101953.41
2023-05-19T03:43:59.307Z,101949.81
2023-05-19T03:46:02.145Z,101957.88
2023-05-19T03:48:03.957Z,101957.88
2023-05-19T03:50:05.780Z,101961.44
2023-05-19T03:52:07.312Z,101966.94
2023-05-19T03:54:08.872Z,101964.19
2023-05-19T03:56:13.661Z,101965.03
2023-05-19T03:58:15.921Z,101961.44
2023-05-19T04:00:18.056Z,101951.50
2023-05-19T04:02:19.556Z,101953.41
2023-05-19T04:04:21.724Z,101958.06
2023-05-19T04:06:23.470Z,101962.69
2023-05-19T04:08:25.002Z,101963.75
2023-05-19T04:10:26.693Z,101970.09
2023-05-19T04:12:28.230Z,101958.25
2023-05-19T04:14:29.747Z,101969.03
2023-05-19T04:16:31.600Z,101961.66
2023-05-19T04:18:33.181Z,101960.81
2023-05-19T04:20:34.879Z,101969.88
2023-05-19T04:22:36.561Z,101969.88
2023-05-19T04:24:38.066Z,101973.47
2023-05-19T04:26:45.788Z,101968.19
2023-05-19T04:28:48.290Z,101969.25
2023-05-19T04:30:50.596Z,101965.63
2023-05-19T04:32:52.190Z,101964.59
2023-05-19T04:34:53.769Z,101962.88
2023-05-19T04:36:55.534Z,101964.59
2023-05-19T04:39:02.381Z,101969.25
2023-05-19T04:41:04.283Z,101970.09
2023-05-19T04:43:07.315Z,101968.19
2023-05-19T04:45:09.562Z,101959.94
2023-05-19T04:47:11.434Z,101970.09
2023-05-19T04:49:14.040Z,101969.03
2023-05-19T04:51:15.760Z,101976.41
2023-05-19T04:53:17.761Z,101973.66
2023-05-19T04:55:19.826Z,101979.34
2023-05-19T04:57:21.416Z,101981.25
2023-05-19T04:59:23.268Z,101990.53
2023-05-19T05:01:26.278Z,101986.75
2023-05-19T05:03:28.012Z,101974.94
2023-05-19T05:05:29.540Z,101988.47
2023-05-19T05:07:32.534Z,101983.81
2023-05-19T05:09:34.233Z,101989.31
2023-05-19T05:11:36.054Z,101981.06
2023-05-19T05:13:37.720Z,101993.75
2023-05-19T05:15:39.440Z,101992.03
2023-05-19T05:17:41.188Z,101995.81
2023-05-19T05:19:43.105Z,101998.56
2023-05-19T05:21:44.748Z,101996.03
2023-05-19T05:23:46.362Z,101993.28
2023-05-19T05:25:48.142Z,101994.34
2023-05-19T05:27:49.954Z,101995.19
2023-05-19T05:29:51.740Z,102001.50
2023-05-19T05:31:53.233Z,101997.94
2023-05-19T05:33:54.876Z,101997.94
2023-05-19T05:35:56.378Z,101996.91
2023-05-19T05:37:57.811Z,102002.38
2023-05-19T05:39:59.291Z,101996.91
2023-05-19T05:42:01.047Z,102003.41
2023-05-19T05:44:02.840Z,101990.19
2023-05-19T05:46:04.545Z,102001.72
2023-05-19T05:48:06.440Z,101998.31
2023-05-19T05:50:09.221Z,102007.41
2023-05-19T05:52:11.934Z,102001.06
2023-05-19T05:54:16.959Z,102004.66
2023-05-19T05:56:18.758Z,102002.97
2023-05-19T05:58:21.232Z,102005.72
2023-05-19T06:00:22.984Z,102009.31
2023-05-19T06:02:24.784Z,102004.66
2023-05-19T06:04:26.487Z,102017.53
2023-05-19T06:06:27.999Z,102013.94
2023-05-19T06:08:29.482Z,102008.47
2023-05-19T06:10:31.925Z,102011.41
2023-05-19T06:12:34.323Z,102014.97
2023-05-19T06:14:35.820Z,102016.03
2023-05-19T06:16:37.357Z,102017.09
2023-05-19T06:18:39.070Z,102012.44
2023-05-19T06:20:40.899Z,102023.41
2023-05-19T06:22:42.427Z,102028.06
2023-05-19T06:24:43.976Z,102032.50
2023-05-19T06:26:45.550Z,102027.00
2023-05-19T06:28:47.022Z,102023.41
2023-05-19T06:30:48.483Z,102018.75
2023-05-19T06:32:50.341Z,102019.63
2023-05-19T06:34:54.835Z,102017.09
2023-05-19T06:36:56.285Z,102025.31
2023-05-19T06:38:57.756Z,102018.13
2023-05-19T06:40:59.227Z,102009.03
2023-05-19T06:43:00.828Z,102018.31
2023-05-19T06:45:02.398Z,102022.78
2023-05-19T06:47:04.044Z,102015.38
2023-05-19T06:49:05.823Z,102011.59
2023-05-19T06:51:07.345Z,102017.94
2023-05-19T06:53:08.953Z,102006.94
2023-05-19T06:55:10.488Z,102007.78
2023-05-19T06:57:11.958Z,102006.94
2023-05-19T06:59:13.498Z,102006.94
2023-05-19T07:01:15.117Z,101997.88
2023-05-19T07:03:16.838Z,101995.13
2023-05-19T07:05:18.833Z,101968.94
2023-05-19T07:07:20.425Z,102004.19
2023-05-19T07:09:21.903Z,102001.47
2023-05-19T07:11:23.571Z,101995.97
2023-05-19T07:13:27.209Z,102000.22
2023-05-19T07:15:29.092Z,102005.72
2023-05-19T07:17:30.694Z,102002.78
2023-05-19T07:19:32.246Z,101997.28
2023-05-19T07:21:33.858Z,102005.31
2023-05-19T07:23:35.604Z,101973.72
2023-05-19T07:25:37.057Z,101992.44
2023-05-19T07:27:38.650Z,101989.69
2023-05-19T07:29:40.105Z,101997.72
2023-05-19T07:31:41.669Z,101985.91
2023-05-19T07:33:43.201Z,101994.78
2023-05-19T07:35:45.498Z,101991.22
2023-05-19T07:37:46.999Z,101986.34
2023-05-19T07:39:48.666Z,101989.94
2023-05-19T07:41:54.163Z,101994.19
2023-05-19T07:43:55.921Z,101991.47
2023-05-19T07:45:57.459Z,101989.34
2023-05-19T07:47:59.026Z,101992.97
2023-05-19T07:50:00.730Z,101989.16
2023-05-19T07:52:02.222Z,101990.03
2023-05-19T07:54:03.880Z,101988.31
2023-05-19T07:56:05.812Z,101985.56
2023-05-19T07:58:07.299Z,101982.00
2023-05-19T08:00:10.042Z,101979.03
2023-05-19T08:02:11.655Z,101985.19
2023-05-19T08:04:13.397Z,101985.19
2023-05-19T08:06:15.019Z,101983.09
2023-05-19T08:08:19.831Z,101975.72
2023-05-19T08:10:21.344Z,101976.34
2023-05-19T08:12:22.815Z,101977.22
2023-05-19T08:14:24.354Z,101975.31
2023-05-19T08:16:25.925Z,101972.56
2023-05-19T08:18:27.377Z,101976.16
2023-05-19T08:20:28.848Z,101969.81
2023-05-19T08:22:30.330Z,101978.91
2023-05-19T08:24:33.882Z,101972.38
2023-05-19T08:26:37.572Z,101973.22
2023-05-19T08:28:39.567Z,101969.44
2023-05-19T08:30:41.109Z,101974.75
2023-05-19T08:32:42.628Z,101972.84
2023-05-19T08:34:44.180Z,101976.47
2023-05-19T08:36:46.036Z,101971.81
2023-05-19T08:38:47.630Z,101969.06
2023-05-19T08:40:49.453Z,101963.56
2023-05-19T08:42:51.350Z,101964.41
2023-05-19T08:44:52.931Z,101953.41
2023-05-19T08:46:55.125Z,101954.28
2023-05-19T08:49:04.760Z,101951.34
2023-05-19T08:51:09.004Z,101950.47
2023-05-19T08:53:24.997Z,101941.19
2023-05-19T08:55:41.217Z,101940.16
2023-05-19T08:57:43.521Z,101943.75
2023-05-19T08:59:45.978Z,101934.47
2023-05-19T09:01:48.943Z,101936.16
2023-05-19T09:03:51.762Z,101944.19
2023-05-19T09:05:53.594Z,101934.06
2023-05-19T09:07:55.314Z,101932.16
2023-05-19T09:09:56.967Z,101934.06
2023-05-19T09:11:58.629Z,101926.03
2023-05-19T09:14:00.397Z,101924.13
2023-05-19T09:16:03.708Z,101917.59
2023-05-19T09:18:12.263Z,101920.97
2023-05-19T09:20:14.433Z,101917.38
2023-05-19T09:22:16.374Z,101916.34
2023-05-19T09:24:17.882Z,101915.28
2023-05-19T09:26:20.715Z,101913.41
2023-05-19T09:28:25.524Z,101914.25
2023-05-19T09:30:27.091Z,101905.81
2023-05-19T09:32:28.923Z,101890.53
2023-05-19T09:34:30.706Z,101893.09
2023-05-19T09:36:32.190Z,101910.44
2023-05-19T09:38:34.861Z,101897.75
2023-05-19T09:40:36.365Z,101897.75
2023-05-19T09:42:38.625Z,101900.50
2023-05-19T09:44:41.398Z,101900.31
2023-05-19T09:46:49.818Z,101901.16
2023-05-19T09:48:51.474Z,101895.66
2023-05-19T09:50:53.867Z,101894.59
2023-05-19T09:52:55.989Z,101896.13
2023-05-19T09:54:57.523Z,101892.50
2023-05-19T09:57:00.065Z,101900.75
2023-05-19T09:59:03.533Z,101896.97
2023-05-19T10:01:05.689Z,101896.97
2023-05-19T10:03:09.201Z,101899.91
2023-05-19T10:05:11.320Z,101899.91
2023-05-19T10:07:14.715Z,101901.81
2023-05-19T10:09:16.664Z,101901.63
2023-05-19T10:11:18.271Z,101891.47
2023-05-19T10:13:21.437Z,101896.97
2023-05-19T10:15:23.506Z,101888.72
2023-05-19T10:17:25.204Z,101895.91
2023-05-19T10:19:27.673Z,101891.47
2023-05-19T10:21:29.577Z,101894.00
2023-05-19T10:23:31.217Z,101890.22
2023-05-19T10:25:34.195Z,101885.56
2023-05-19T10:27:37.466Z,101883.84
2023-05-19T10:29:40.536Z,101886.81
2023-05-19T10:31:42.364Z,101885.97
2023-05-19T10:33:55.750Z,101881.31
2023-05-19T10:36:15.814Z,101881.31
2023-05-19T10:38:26.706Z,101890.22
2023-05-19T10:40:30.235Z,101879.22
2023-05-19T10:42:35.004Z,101869.91
2023-05-19T10:44:55.109Z,101877.13
2023-05-19T10:46:57.052Z,101880.69
2023-05-19T10:48:59.267Z,101880.91
2023-05-19T10:51:00.926Z,101878.16
2023-05-19T10:53:02.667Z,101877.13
2023-05-19T10:55:04.914Z,101878.16
2023-05-19T10:57:07.140Z,101871.63
2023-05-19T10:59:29.653Z,101859.78
2023-05-19T11:01:35.299Z,101872.47
2023-05-19T11:03:44.553Z,101871.41
2023-05-19T11:05:46.498Z,101877.56
2023-05-19T11:07:54.974Z,101866.56
2023-05-19T11:09:56.512Z,101860.03
2023-05-19T11:12:03.242Z,101860.66
2023-05-19T11:14:04.768Z,101862.56
2023-05-19T11:16:09.430Z,101861.53
2023-05-19T11:18:15.889Z,101858.13
2023-05-19T11:20:22.821Z,101857.28
2023-05-19T11:22:26.036Z,101859.19
2023-05-19T11:24:42.745Z,101852.63
2023-05-19T11:26:45.563Z,101848.00
2023-05-19T11:28:47.649Z,101843.34
2023-05-19T11:30:54.153Z,101845.03
2023-05-19T11:32:55.719Z,101843.13
2023-05-19T11:34:57.744Z,101841.88
2023-05-19T11:36:59.557Z,101845.47
2023-05-19T11:39:03.141Z,101829.00
2023-05-19T11:41:05.001Z,101813.09
2023-05-19T11:43:06.544Z,101838.75
2023-05-19T11:45:08.382Z,101836.00
2023-05-19T11:47:10.039Z,101832.41
2023-05-19T11:49:11.523Z,101827.75
2023-05-19T11:51:13.228Z,101837.50
2023-05-19T11:53:15.424Z,101823.75
2023-05-19T11:55:23.341Z,101821.41
2023-05-19T11:57:25.095Z,101822.84
2023-05-19T11:59:35.627Z,101820.72
2023-05-19T12:01:37.738Z,101812.03
2023-05-19T12:03:39.466Z,101806.50
2023-05-19T12:05:48.181Z,101808.63
2023-05-19T12:07:51.507Z,101809.03
2023-05-19T12:09:56.911Z,101792.66
2023-05-19T12:11:58.524Z,101804.50
2023-05-19T12:14:00.988Z,101803.25
2023-05-19T12:16:03.740Z,101800.03
2023-05-19T12:18:05.847Z,101789.81
2023-05-19T12:20:08.169Z,101787.88
2023-05-19T12:22:10.409Z,101791.41
2023-05-19T12:24:12.013Z,101796.19
2023-05-19T12:26:13.608Z,101793.16
2023-05-19T12:28:16.282Z,101791.69
2023-05-19T12:30:18.560Z,101787.53
2023-05-19T12:32:29.236Z,101788.97
2023-05-19T12:34:31.430Z,101789.34
2023-05-19T12:36:32.996Z,101789.75
2023-05-19T12:38:37.305Z,101784.25
2023-05-19T12:40:42.169Z,101781.69
2023-05-19T12:42:48.113Z,101781.50
2023-05-19T12:44:52.373Z,101774.13
2023-05-19T12:46:53.903Z,101783.22
2023-05-19T12:49:00.720Z,101765.88
2023-05-19T12:51:02.471Z,101781.91
2023-05-19T12:53:08.535Z,101781.44
2023-05-19T12:55:14.129Z,101775.50
2023-05-19T12:57:20.986Z,101772.09
2023-05-19T12:59:37.416Z,101752.56
2023-05-19T13:01:55.034Z,101767.00
2023-05-19T13:03:57.196Z,101760.22
2023-05-19T13:05:59.830Z,101768.63
2023-05-19T13:08:04.614Z,101767.78
2023-05-19T13:10:06.606Z,101757.41
2023-05-19T13:12:08.129Z,101746.66
2023-05-19T13:14:10.374Z,101767.06
2023-05-19T13:16:11.995Z,101758.56
2023-05-19T13:18:13.815Z,101763.78
2023-05-19T13:20:15.330Z,101760.59
2023-05-19T13:22:17.115Z,101753.97
2023-05-19T13:24:18.807Z,101755.88
2023-05-19T13:26:21.313Z,101759.63
2023-05-19T13:28:23.353Z,101758.50
2023-05-19T13:30:25.743Z,101755.75
2023-05-19T13:32:27.191Z,101748.75
2023-05-19T13:34:28.795Z,101747.47
2023-05-19T13:36:30.343Z,101757.75
2023-05-19T13:38:32.008Z,101748.03
2023-05-19T13:40:34.739Z,101741.88
2023-05-19T13:42:36.878Z,101747.28
2023-05-19T13:44:38.508Z,101749.47
2023-05-19T13:46:45.604Z,101745.03
2023-05-19T13:48:48.433Z,101739.34
2023-05-19T13:50:52.451Z,101740.69
2023-05-19T13:52:53.918Z,101736.72
2023-05-19T13:54:56.764Z,101729.16
2023-05-19T13:56:58.299Z,101733.78
2023-05-19T13:58:59.928Z,101731.91
2023-05-19T14:01:01.499Z,101733.81
2023-05-19T14:03:03.460Z,101733.81
2023-05-19T14:05:06.954Z,101733.81
2023-05-19T14:07:10.300Z,101728.53
2023-05-19T14:09:11.954Z,101725.31
2023-05-19T14:11:20.305Z,101729.28
2023-05-19T14:13:32.516Z,101737.69
2023-05-19T14:15:37.804Z,101730.50
2023-05-19T14:17:39.676Z,101724.75
2023-05-19T14:19:41.231Z,101722.69
2023-05-19T14:21:42.807Z,101715.31
2023-05-19T14:23:44.388Z,101715.31
2023-05-19T14:25:46.138Z,101727.50
2023-05-19T14:27:47.676Z,101737.38
2023-05-19T14:29:49.321Z,101721.72
2023-05-19T14:31:51.133Z,101723.25
2023-05-19T14:33:52.850Z,101723.06
2023-05-19T14:35:55.391Z,101720.31
2023-05-19T14:37:57.010Z,101714.00
2023-05-19T14:39:58.684Z,101708.03
2023-05-19T14:42:00.198Z,101720.63
2023-05-19T14:44:01.900Z,101712.25
2023-05-19T14:46:03.536Z,101716.41
2023-05-19T14:48:05.508Z,101713.22
2023-05-19T14:50:07.755Z,101709.81
2023-05-19T14:52:09.249Z,101701.03
2023-05-19T14:54:10.813Z,101702.75
2023-05-19T14:56:12.484Z,101702.38
2023-05-19T14:58:27.502Z,101699.63
2023-05-19T15:00:30.344Z,101694.81
2023-05-19T15:02:32.048Z,101702.63
2023-05-19T15:04:33.529Z,101698.31
2023-05-19T15:06:35.044Z,101688.66
2023-05-19T15:08:37.816Z,101702.34
2023-05-19T15:10:39.386Z,101678.13
2023-05-19T15:12:41.266Z,101696.16
2023-05-19T15:14:42.868Z,101697.34
2023-05-19T15:16:44.378Z,101696.38
2023-05-19T15:18:46.030Z,101694.03
2023-05-19T15:20:47.926Z,101688.84
2023-05-19T15:22:49.478Z,101695.16
2023-05-19T15:24:51.035Z,101692.16
2023-05-19T15:26:52.645Z,101700.25
2023-05-19T15:28:54.141Z,101695.75
2023-05-19T15:30:55.735Z,101688.88
2023-05-19T15:32:57.285Z,101688.50
2023-05-19T15:34:58.832Z,101682.63
2023-05-19T15:37:00.404Z,101679.88
2023-05-19T15:39:03.552Z,101685.34
2023-05-19T15:41:06.427Z,101684.50
2023-05-19T15:43:07.846Z,101676.31
2023-05-19T15:45:09.747Z,101679.69
2023-05-19T15:47:11.247Z,101678.47
2023-05-19T15:49:13.079Z,101690.19
2023-05-19T15:51:14.975Z,101677.94
2023-05-19T15:53:16.860Z,101679.63
2023-05-19T15:55:18.503Z,101677.41
2023-05-19T15:57:20.235Z,101673.59
2023-05-19T15:59:21.892Z,101675.81
2023-05-19T16:01:23.471Z,101663.44
2023-05-19T16:03:25.341Z,101670.94
2023-05-19T16:05:27.009Z,101657.41
2023-05-19T16:07:28.486Z,101669.50
2023-05-19T16:09:30.077Z,101666.41
2023-05-19T16:11:31.634Z,101658.94
2023-05-19T16:13:33.914Z,101671.91
2023-05-19T16:15:35.564Z,101666.34
2023-05-19T16:17:37.185Z,101668.38
2023-05-19T16:19:38.718Z,101663.47
2023-05-19T16:21:40.295Z,101665.00
2023-05-19T16:23:41.934Z,101655.78
2023-05-19T16:25:43.437Z,101658.63
2023-05-19T16:27:45.143Z,101654.34
2023-05-19T16:29:46.597Z,101649.53
2023-05-19T16:31:48.128Z,101652.44
2023-05-19T16:33:49.886Z,101652.06
2023-05-19T16:35:51.455Z,101649.81
2023-05-19T16:37:53.098Z,101648.78
2023-05-19T16:39:54.610Z,101651.16
2023-05-19T16:41:56.113Z,101645.88
2023-05-19T16:43:57.683Z,101655.09
2023-05-19T16:45:59.276Z,101642.97
2023-05-19T16:48:00.831Z,101643.25
2023-05-19T16:50:02.558Z,101644.78
2023-05-19T16:52:04.129Z,101637.44
2023-05-19T16:54:05.796Z,101637.78
2023-05-19T16:56:08.070Z,101638.47
2023-05-19T16:58:11.592Z,101641.00
2023-05-19T17:00:13.305Z,101639.13
2023-05-19T17:02:14.817Z,101648.59
2023-05-19T17:04:16.527Z,101643.59
2023-05-19T17:06:20.934Z,101641.88
2023-05-19T17:08:22.446Z,101644.53
2023-05-19T17:10:23.972Z,101646.34
2023-05-19T17:12:25.535Z,101648.66
2023-05-19T17:14:27.101Z,101650.84
2023-05-19T17:16:28.881Z,101640.00
2023-05-19T17:18:31.337Z,101653.13
2023-05-19T17:20:33.150Z,101646.47
2023-05-19T17:22:34.803Z,101650.25
2023-05-19T17:24:36.525Z,101646.47
2023-05-19T17:26:38.067Z,101645.06
2023-05-19T17:28:39.529Z,101651.00
2023-05-19T17:30:41.342Z,101650.63
2023-05-19T17:32:43.084Z,101649.41
2023-05-19T17:34:44.644Z,101649.22
2023-05-19T17:36:46.337Z,101646.47
2023-05-19T17:38:47.904Z,101648.19
2023-05-19T17:40:49.491Z,101670.91
2023-05-19T17:42:51.030Z,101653.84
2023-05-19T17:44:52.523Z,101653.66
2023-05-19T17:46:54.060Z,101657.03
2023-05-19T17:48:55.803Z,101653.28
2023-05-19T17:50:57.666Z,101648.38
2023-05-19T17:52:59.363Z,101651.75
2023-05-19T17:55:01.152Z,101649.34
2023-05-19T17:57:06.515Z,101647.06
2023-05-19T17:59:08.249Z,101651.31
2023-05-19T18:01:09.882Z,101655.09
2023-05-19T18:03:11.811Z,101650.44
2023-05-19T18:05:13.732Z,101648.78
2023-05-19T18:07:16.570Z,101641.97
2023-05-19T18:09:19.319Z,101648.19
2023-05-19T18:11:21.288Z,101659.31
2023-05-19T18:13:23.629Z,101650.25
2023-05-19T18:15:25.593Z,101651.13
2023-05-19T18:17:27.156Z,101647.13
2023-05-19T18:19:29.013Z,101653.09
2023-05-19T18:21:31.359Z,101649.16
2023-05-19T18:23:32.849Z,101658.84
2023-05-19T18:25:34.854Z,101658.47
2023-05-19T18:27:36.293Z,101651.31
2023-05-19T18:29:38.149Z,101656.78
2023-05-19T18:31:39.679Z,101662.06
2023-05-19T18:33:41.835Z,101662.06
2023-05-19T18:35:43.792Z,101659.16
2023-05-19T18:37:45.318Z,101659.16
2023-05-19T18:39:46.834Z,101660.19
2023-05-19T18:41:48.388Z,101656.41
2023-05-19T18:43:49.919Z,101661.38
2023-05-19T18:45:51.379Z,101623.84
2023-05-19T18:47:53.029Z,101662.91
2023-05-19T18:49:54.859Z,101661.88
2023-05-19T18:51:56.452Z,101670.09
2023-05-19T18:53:57.991Z,101663.75
2023-05-19T18:55:59.558Z,101664.81
2023-05-19T18:58:01.712Z,101669.22
2023-05-19T19:00:04.232Z,101673.19
2023-05-19T19:02:06.384Z,101670.16
2023-05-19T19:04:08.002Z,101666.88
2023-05-19T19:06:09.533Z,101675.19
2023-05-19T19:08:11.136Z,101673.75
2023-05-19T19:10:12.798Z,101666.88
2023-05-19T19:12:14.304Z,101673.50
2023-05-19T19:14:15.937Z,101676.50
2023-05-19T19:16:17.478Z,101681.78
2023-05-19T19:18:18.997Z,101676.97
2023-05-19T19:20:20.667Z,101681.88
2023-05-19T19:22:22.258Z,101679.63
2023-05-19T19:24:26.358Z,101683.88
2023-05-19T19:26:29.019Z,101680.94
2023-05-19T19:28:30.760Z,101679.75
2023-05-19T19:30:32.522Z,101678.69
2023-05-19T19:32:34.226Z,101679.56
2023-05-19T19:34:35.834Z,101682.94
2023-05-19T19:36:37.417Z,101684.28
2023-05-19T19:38:38.851Z,101696.06
2023-05-19T19:40:40.465Z,101696.91
2023-05-19T19:42:42.035Z,101690.41
2023-05-19T19:44:43.526Z,101692.09
2023-05-19T19:46:45.473Z,101696.31
2023-05-19T19:48:47.067Z,101697.19
2023-05-19T19:50:53.409Z,101700.59
2023-05-19T19:52:54.893Z,101705.88
2023-05-19T19:54:57.262Z,101702.94
2023-05-19T19:56:58.954Z,101706.53
2023-05-19T19:59:01.376Z,101707.38
2023-05-19T20:01:03.481Z,101710.13
2023-05-19T20:03:05.984Z,101709.94
2023-05-19T20:05:08.010Z,101713.31
2023-05-19T20:07:09.531Z,101715.03
2023-05-19T20:09:11.087Z,101718.41
2023-05-19T20:11:12.586Z,101713.81
2023-05-19T20:13:15.242Z,101719.94
2023-05-19T20:15:16.762Z,101724.38
2023-05-19T20:17:18.260Z,101720.56
2023-05-19T20:19:19.915Z,101721.25
2023-05-19T20:21:21.443Z,101728.59
2023-05-19T20:23:22.952Z,101726.03
2023-05-19T20:25:24.515Z,101727.56
2023-05-19T20:27:25.992Z,101729.47
2023-05-19T20:29:27.715Z,101736.63
2023-05-19T20:31:29.201Z,101729.09
2023-05-19T20:33:31.715Z,101737.09
2023-05-19T20:35:33.455Z,101735.00
2023-05-19T20:37:35.038Z,101732.09
2023-05-19T20:39:36.579Z,101736.53
2023-05-19T20:41:38.078Z,101739.06
2023-05-19T20:43:39.609Z,101735.50
2023-05-19T20:45:43.085Z,101736.16
2023-05-19T20:47:44.602Z,101740.78
2023-05-19T20:49:46.471Z,101725.38
2023-05-19T20:51:48.024Z,101731.69
2023-05-19T20:53:49.508Z,101729.63
2023-05-19T20:55:51.119Z,101730.66
2023-05-19T20:57:52.674Z,101734.06
2023-05-19T20:59:54.190Z,101727.75
2023-05-19T21:01:55.730Z,101735.75
2023-05-19T21:03:57.204Z,101731.13
2023-05-19T21:05:58.715Z,101732.81
2023-05-19T21:08:00.272Z,101730.94
2023-05-19T21:10:01.840Z,101735.38
2023-05-19T21:12:03.479Z,101722.84
2023-05-19T21:14:05.058Z,101738.31
2023-05-19T21:16:07.072Z,101732.00
2023-05-19T21:18:08.723Z,101732.19
2023-05-19T21:20:10.472Z,101743.78
2023-05-19T21:22:11.954Z,101735.56
2023-05-19T21:24:13.957Z,101738.31
2023-05-19T21:26:15.435Z,101740.22
2023-05-19T21:28:16.931Z,101743.97
2023-05-19T21:30:18.605Z,101744.16
2023-05-19T21:32:20.597Z,101740.78
2023-05-19T21:34:23.473Z,101742.00
2023-05-19T21:36:24.920Z,101744.75
2023-05-19T21:38:26.884Z,101747.50
2023-05-19T21:40:28.386Z,101745.13
2023-05-19T21:42:29.970Z,101740.88
2023-05-19T21:44:31.987Z,101738.31
2023-05-19T21:46:33.541Z,101747.38
2023-05-19T21:48:35.086Z,101736.63
2023-05-19T21:50:39.795Z,101744.84
2023-05-19T21:52:41.353Z,101740.22
2023-05-19T21:54:43.111Z,101738.53
2023-05-19T21:56:44.777Z,101732.41
2023-05-19T21:58:46.479Z,101745.03
2023-05-19T22:00:51.603Z,101743.34
2023-05-19T22:02:53.316Z,101737.00
2023-05-19T22:04:55.179Z,101738.91
2023-05-19T22:06:57.417Z,101730.88
2023-05-19T22:09:01.125Z,101729.38
2023-05-19T22:11:02.630Z,101733.16
2023-05-19T22:13:04.095Z,101734.00
2023-05-19T22:15:06.673Z,101729.56
2023-05-19T22:17:08.196Z,101732.09
2023-05-19T22:19:10.578Z,101728.53
2023-05-19T22:21:12.161Z,101734.66
2023-05-19T22:23:13.694Z,101736.53
2023-05-19T22:25:15.264Z,101734.84
2023-05-19T22:27:16.792Z,101732.28
2023-05-19T22:29:19.263Z,101731.44
2023-05-19T22:31:20.947Z,101723.63
2023-05-19T22:33:22.386Z,101728.59
2023-05-19T22:35:24.231Z,101727.78
2023-05-19T22:37:25.800Z,101725.03
2023-05-19T22:39:27.348Z,101721.47
2023-05-19T22:41:28.916Z,101728.78
2023-05-19T22:43:30.327Z,101722.28
2023-05-19T22:45:32.229Z,101730.31
2023-05-19T22:47:33.876Z,101720.22
2023-05-19T22:49:35.767Z,101717.50
2023-05-19T22:51:37.842Z,101726.53
2023-05-19T22:53:39.291Z,101713.88
2023-05-19T22:55:40.754Z,101715.59
2023-05-19T22:57:42.276Z,101724.00
2023-05-19T22:59:43.909Z,101719.56
2023-05-19T23:01:47.023Z,101695.31
2023-05-19T23:03:48.665Z,101712.56
2023-05-19T23:05:50.175Z,101719.75
2023-05-19T23:07:51.634Z,101713.25
2023-05-19T23:09:53.276Z,101711.34
2023-05-19T23:11:54.961Z,101714.91
2023-05-19T23:13:56.816Z,101711.53
2023-05-19T23:15:58.324Z,101706.25
2023-05-19T23:18:01.207Z,101708.16